sensor_id;sensor_type;location;lat;lon;timestamp;P1;durP1;ratioP1;P2;durP2;ratioP2
4577;SDS011;2301;47.354;8.528;2023-09-18T00:01:31;2.87;;;1.90;;
4577;SDS011;2301;47.354;8.528;2023-09-18T00:03:59;2.20;;;2.00;;
4577;SDS011;2301;47.354;8.528;2023-09-18T00:06:26;2.13;;;1.60;;
4577;SDS011;2301;47.354;8.528;2023-09-18T00:08:53;2.83;;;1.63;;
4577;SDS011;2301;47.354;8.528;2023-09-18T00:11:20;5.10;;;2.00;;
4577;SDS011;2301;47.354;8.528;2023-09-18T00:13:47;2.30;;;1.60;;
4577;SDS011;2301;47.354;8.528;2023-09-18T00:16:14;2.83;;;1.80;;
4577;SDS011;2301;47.354;8.528;2023-09-18T00:18:41;3.87;;;2.00;;
4577;SDS011;2301;47.354;8.528;2023-09-18T00:21:10;3.93;;;1.60;;
4577;SDS011;2301;47.354;8.528;2023-09-18T00:23:37;2.67;;;1.93;;
4577;SDS011;2301;47.354;8.528;2023-09-18T00:26:04;2.63;;;1.90;;
4577;SDS011;2301;47.354;8.528;2023-09-18T00:28:31;2.87;;;1.73;;
4577;SDS011;2301;47.354;8.528;2023-09-18T00:30:58;2.07;;;1.87;;
4577;SDS011;2301;47.354;8.528;2023-09-18T00:33:25;4.37;;;1.60;;
4577;SDS011;2301;47.354;8.528;2023-09-18T00:35:51;3.50;;;2.23;;
4577;SDS011;2301;47.354;8.528;2023-09-18T00:38:20;3.83;;;1.80;;
4577;SDS011;2301;47.354;8.528;2023-09-18T00:40:47;2.70;;;2.00;;
4577;SDS011;2301;47.354;8.528;2023-09-18T00:43:14;2.47;;;1.80;;
4577;SDS011;2301;47.354;8.528;2023-09-18T00:45:44;3.37;;;1.90;;
4577;SDS011;2301;47.354;8.528;2023-09-18T00:48:12;3.40;;;2.00;;
4577;SDS011;2301;47.354;8.528;2023-09-18T00:50:41;3.27;;;1.90;;
4577;SDS011;2301;47.354;8.528;2023-09-18T00:53:13;3.13;;;1.97;;
4577;SDS011;2301;47.354;8.528;2023-09-18T00:55:46;4.30;;;1.73;;
4577;SDS011;2301;47.354;8.528;2023-09-18T00:58:13;3.13;;;1.80;;
4577;SDS011;2301;47.354;8.528;2023-09-18T01:00:41;7.47;;;1.87;;
4577;SDS011;2301;47.354;8.528;2023-09-18T01:03:10;2.13;;;1.70;;
4577;SDS011;2301;47.354;8.528;2023-09-18T01:05:38;7.40;;;2.00;;
4577;SDS011;2301;47.354;8.528;2023-09-18T01:08:05;2.30;;;1.80;;
4577;SDS011;2301;47.354;8.528;2023-09-18T01:10:32;4.30;;;2.00;;
4577;SDS011;2301;47.354;8.528;2023-09-18T01:13:04;2.37;;;1.63;;
4577;SDS011;2301;47.354;8.528;2023-09-18T01:15:39;2.43;;;1.70;;
4577;SDS011;2301;47.354;8.528;2023-09-18T01:18:10;3.17;;;1.90;;
4577;SDS011;2301;47.354;8.528;2023-09-18T01:20:38;3.33;;;1.80;;
4577;SDS011;2301;47.354;8.528;2023-09-18T01:23:07;3.33;;;1.73;;
4577;SDS011;2301;47.354;8.528;2023-09-18T01:25:34;3.73;;;1.60;;
4577;SDS011;2301;47.354;8.528;2023-09-18T01:28:01;2.77;;;1.80;;
4577;SDS011;2301;47.354;8.528;2023-09-18T01:30:28;4.70;;;2.07;;
4577;SDS011;2301;47.354;8.528;2023-09-18T01:32:55;3.50;;;1.73;;
4577;SDS011;2301;47.354;8.528;2023-09-18T01:35:25;3.67;;;1.70;;
4577;SDS011;2301;47.354;8.528;2023-09-18T01:37:56;2.47;;;1.80;;
4577;SDS011;2301;47.354;8.528;2023-09-18T01:40:28;1.93;;;1.53;;
4577;SDS011;2301;47.354;8.528;2023-09-18T01:42:56;4.07;;;2.00;;
4577;SDS011;2301;47.354;8.528;2023-09-18T01:45:23;2.70;;;1.73;;
4577;SDS011;2301;47.354;8.528;2023-09-18T01:47:50;4.97;;;1.80;;
4577;SDS011;2301;47.354;8.528;2023-09-18T01:50:17;2.37;;;1.70;;
4577;SDS011;2301;47.354;8.528;2023-09-18T01:52:44;3.10;;;1.90;;
4577;SDS011;2301;47.354;8.528;2023-09-18T01:55:11;4.27;;;1.90;;
4577;SDS011;2301;47.354;8.528;2023-09-18T01:57:39;3.43;;;1.90;;
4577;SDS011;2301;47.354;8.528;2023-09-18T02:00:08;4.77;;;2.37;;
4577;SDS011;2301;47.354;8.528;2023-09-18T02:02:35;2.30;;;1.90;;
4577;SDS011;2301;47.354;8.528;2023-09-18T02:05:03;2.57;;;1.77;;
4577;SDS011;2301;47.354;8.528;2023-09-18T02:07:30;3.03;;;1.67;;
4577;SDS011;2301;47.354;8.528;2023-09-18T02:09:57;2.07;;;1.80;;
4577;SDS011;2301;47.354;8.528;2023-09-18T02:12:24;3.40;;;2.10;;
4577;SDS011;2301;47.354;8.528;2023-09-18T02:14:53;2.67;;;1.70;;
4577;SDS011;2301;47.354;8.528;2023-09-18T02:17:22;3.70;;;1.70;;
4577;SDS011;2301;47.354;8.528;2023-09-18T02:19:49;3.00;;;1.90;;
4577;SDS011;2301;47.354;8.528;2023-09-18T02:22:16;2.00;;;1.73;;
4577;SDS011;2301;47.354;8.528;2023-09-18T02:24:43;3.03;;;2.10;;
4577;SDS011;2301;47.354;8.528;2023-09-18T02:27:10;2.90;;;1.70;;
4577;SDS011;2301;47.354;8.528;2023-09-18T02:29:37;2.37;;;1.97;;
4577;SDS011;2301;47.354;8.528;2023-09-18T02:32:05;3.30;;;2.20;;
4577;SDS011;2301;47.354;8.528;2023-09-18T02:34:32;3.23;;;1.83;;
4577;SDS011;2301;47.354;8.528;2023-09-18T02:36:59;4.07;;;1.80;;
4577;SDS011;2301;47.354;8.528;2023-09-18T02:39:26;2.77;;;1.90;;
4577;SDS011;2301;47.354;8.528;2023-09-18T02:41:54;4.80;;;2.10;;
4577;SDS011;2301;47.354;8.528;2023-09-18T02:44:22;3.20;;;1.90;;
4577;SDS011;2301;47.354;8.528;2023-09-18T02:46:49;4.77;;;1.97;;
4577;SDS011;2301;47.354;8.528;2023-09-18T02:49:19;3.43;;;1.87;;
4577;SDS011;2301;47.354;8.528;2023-09-18T02:51:46;2.97;;;1.90;;
4577;SDS011;2301;47.354;8.528;2023-09-18T02:54:13;2.93;;;1.97;;
4577;SDS011;2301;47.354;8.528;2023-09-18T02:56:40;3.37;;;1.80;;
4577;SDS011;2301;47.354;8.528;2023-09-18T02:59:07;2.23;;;1.73;;
4577;SDS011;2301;47.354;8.528;2023-09-18T03:01:34;2.80;;;1.80;;
4577;SDS011;2301;47.354;8.528;2023-09-18T03:04:01;3.63;;;1.80;;
4577;SDS011;2301;47.354;8.528;2023-09-18T03:06:30;2.97;;;1.90;;
4577;SDS011;2301;47.354;8.528;2023-09-18T03:08:57;2.00;;;1.70;;
4577;SDS011;2301;47.354;8.528;2023-09-18T03:11:23;7.70;;;2.33;;
4577;SDS011;2301;47.354;8.528;2023-09-18T03:13:53;7.20;;;2.13;;
4577;SDS011;2301;47.354;8.528;2023-09-18T03:16:20;5.10;;;1.87;;
4577;SDS011;2301;47.354;8.528;2023-09-18T03:18:47;3.40;;;2.10;;
4577;SDS011;2301;47.354;8.528;2023-09-18T03:21:14;4.40;;;2.07;;
4577;SDS011;2301;47.354;8.528;2023-09-18T03:23:42;2.97;;;2.10;;
4577;SDS011;2301;47.354;8.528;2023-09-18T03:26:09;3.90;;;1.93;;
4577;SDS011;2301;47.354;8.528;2023-09-18T03:28:36;6.60;;;2.10;;
4577;SDS011;2301;47.354;8.528;2023-09-18T03:31:03;5.60;;;2.17;;
4577;SDS011;2301;47.354;8.528;2023-09-18T03:33:30;2.43;;;1.70;;
4577;SDS011;2301;47.354;8.528;2023-09-18T03:35:57;5.77;;;2.50;;
4577;SDS011;2301;47.354;8.528;2023-09-18T03:38:24;2.57;;;1.80;;
4577;SDS011;2301;47.354;8.528;2023-09-18T03:40:53;3.90;;;2.30;;
4577;SDS011;2301;47.354;8.528;2023-09-18T03:43:20;8.20;;;1.80;;
4577;SDS011;2301;47.354;8.528;2023-09-18T03:45:47;4.47;;;2.10;;
4577;SDS011;2301;47.354;8.528;2023-09-18T03:48:14;4.87;;;1.83;;
4577;SDS011;2301;47.354;8.528;2023-09-18T03:50:41;4.00;;;1.80;;
4577;SDS011;2301;47.354;8.528;2023-09-18T03:53:08;3.90;;;2.07;;
4577;SDS011;2301;47.354;8.528;2023-09-18T03:55:36;3.20;;;1.80;;
4577;SDS011;2301;47.354;8.528;2023-09-18T03:58:04;7.97;;;2.63;;
4577;SDS011;2301;47.354;8.528;2023-09-18T04:00:31;5.13;;;1.90;;
4577;SDS011;2301;47.354;8.528;2023-09-18T04:02:58;3.10;;;2.00;;
4577;SDS011;2301;47.354;8.528;2023-09-18T04:05:25;3.57;;;2.10;;
4577;SDS011;2301;47.354;8.528;2023-09-18T04:07:52;4.20;;;1.80;;
4577;SDS011;2301;47.354;8.528;2023-09-18T04:10:19;2.53;;;1.70;;
4577;SDS011;2301;47.354;8.528;2023-09-18T04:12:48;4.13;;;1.73;;
4577;SDS011;2301;47.354;8.528;2023-09-18T04:15:18;4.30;;;1.93;;
4577;SDS011;2301;47.354;8.528;2023-09-18T04:17:45;3.70;;;1.80;;
4577;SDS011;2301;47.354;8.528;2023-09-18T04:20:12;5.00;;;1.80;;
4577;SDS011;2301;47.354;8.528;2023-09-18T04:22:42;2.77;;;1.70;;
4577;SDS011;2301;47.354;8.528;2023-09-18T04:25:11;4.80;;;1.87;;
4577;SDS011;2301;47.354;8.528;2023-09-18T04:27:38;4.10;;;2.00;;
4577;SDS011;2301;47.354;8.528;2023-09-18T04:30:06;4.73;;;1.97;;
4577;SDS011;2301;47.354;8.528;2023-09-18T04:32:36;3.20;;;1.77;;
4577;SDS011;2301;47.354;8.528;2023-09-18T04:35:04;3.30;;;1.90;;
4577;SDS011;2301;47.354;8.528;2023-09-18T04:37:35;7.77;;;2.20;;
4577;SDS011;2301;47.354;8.528;2023-09-18T04:40:04;6.23;;;2.00;;
4577;SDS011;2301;47.354;8.528;2023-09-18T04:42:34;2.93;;;1.97;;
4577;SDS011;2301;47.354;8.528;2023-09-18T04:45:01;5.80;;;1.87;;
4577;SDS011;2301;47.354;8.528;2023-09-18T04:47:28;2.57;;;1.67;;
4577;SDS011;2301;47.354;8.528;2023-09-18T04:49:57;6.13;;;1.90;;
4577;SDS011;2301;47.354;8.528;2023-09-18T04:52:23;3.00;;;1.80;;
4577;SDS011;2301;47.354;8.528;2023-09-18T04:54:53;5.97;;;2.10;;
4577;SDS011;2301;47.354;8.528;2023-09-18T04:57:22;4.00;;;2.10;;
4577;SDS011;2301;47.354;8.528;2023-09-18T04:59:49;4.67;;;2.20;;
4577;SDS011;2301;47.354;8.528;2023-09-18T05:02:16;2.57;;;1.83;;
4577;SDS011;2301;47.354;8.528;2023-09-18T05:04:43;3.17;;;1.97;;
4577;SDS011;2301;47.354;8.528;2023-09-18T05:07:11;3.83;;;1.87;;
4577;SDS011;2301;47.354;8.528;2023-09-18T05:09:38;5.20;;;2.00;;
4577;SDS011;2301;47.354;8.528;2023-09-18T05:12:06;7.13;;;2.10;;
4577;SDS011;2301;47.354;8.528;2023-09-18T05:14:38;3.97;;;1.90;;
4577;SDS011;2301;47.354;8.528;2023-09-18T05:17:05;4.60;;;2.10;;
4577;SDS011;2301;47.354;8.528;2023-09-18T05:19:32;3.10;;;1.70;;
4577;SDS011;2301;47.354;8.528;2023-09-18T05:21:59;4.40;;;2.20;;
4577;SDS011;2301;47.354;8.528;2023-09-18T05:24:27;5.17;;;2.43;;
4577;SDS011;2301;47.354;8.528;2023-09-18T05:26:54;4.23;;;2.20;;
4577;SDS011;2301;47.354;8.528;2023-09-18T05:29:21;3.90;;;2.00;;
4577;SDS011;2301;47.354;8.528;2023-09-18T05:31:49;4.23;;;1.90;;
4577;SDS011;2301;47.354;8.528;2023-09-18T05:34:16;5.00;;;1.90;;
4577;SDS011;2301;47.354;8.528;2023-09-18T05:36:43;4.70;;;2.03;;
4577;SDS011;2301;47.354;8.528;2023-09-18T05:39:09;3.90;;;2.67;;
4577;SDS011;2301;47.354;8.528;2023-09-18T05:41:39;5.67;;;2.00;;
4577;SDS011;2301;47.354;8.528;2023-09-18T05:44:07;8.93;;;2.13;;
4577;SDS011;2301;47.354;8.528;2023-09-18T05:46:34;6.60;;;2.30;;
4577;SDS011;2301;47.354;8.528;2023-09-18T05:49:01;5.67;;;2.23;;
4577;SDS011;2301;47.354;8.528;2023-09-18T05:51:29;3.40;;;2.10;;
4577;SDS011;2301;47.354;8.528;2023-09-18T05:53:56;4.70;;;2.10;;
4577;SDS011;2301;47.354;8.528;2023-09-18T05:56:23;2.87;;;1.67;;
4577;SDS011;2301;47.354;8.528;2023-09-18T05:58:51;5.63;;;2.07;;
4577;SDS011;2301;47.354;8.528;2023-09-18T06:01:20;4.57;;;2.27;;
4577;SDS011;2301;47.354;8.528;2023-09-18T06:03:47;3.90;;;2.03;;
4577;SDS011;2301;47.354;8.528;2023-09-18T06:06:14;5.23;;;2.23;;
4577;SDS011;2301;47.354;8.528;2023-09-18T06:08:41;4.33;;;1.80;;
4577;SDS011;2301;47.354;8.528;2023-09-18T06:11:07;4.70;;;2.10;;
4577;SDS011;2301;47.354;8.528;2023-09-18T06:13:34;7.63;;;2.37;;
4577;SDS011;2301;47.354;8.528;2023-09-18T06:16:04;6.10;;;2.23;;
4577;SDS011;2301;47.354;8.528;2023-09-18T06:18:33;6.37;;;2.37;;
4577;SDS011;2301;47.354;8.528;2023-09-18T06:21:02;11.20;;;2.13;;
4577;SDS011;2301;47.354;8.528;2023-09-18T06:23:29;2.90;;;2.00;;
4577;SDS011;2301;47.354;8.528;2023-09-18T06:25:56;3.83;;;1.90;;
4577;SDS011;2301;47.354;8.528;2023-09-18T06:28:24;5.93;;;2.17;;
4577;SDS011;2301;47.354;8.528;2023-09-18T06:30:51;3.23;;;1.70;;
4577;SDS011;2301;47.354;8.528;2023-09-18T06:33:20;5.93;;;2.37;;
4577;SDS011;2301;47.354;8.528;2023-09-18T06:35:47;6.50;;;2.30;;
4577;SDS011;2301;47.354;8.528;2023-09-18T06:38:14;3.83;;;2.03;;
4577;SDS011;2301;47.354;8.528;2023-09-18T06:40:41;4.00;;;2.10;;
4577;SDS011;2301;47.354;8.528;2023-09-18T06:43:09;8.23;;;1.80;;
4577;SDS011;2301;47.354;8.528;2023-09-18T06:45:39;2.03;;;1.53;;
4577;SDS011;2301;47.354;8.528;2023-09-18T06:48:11;4.67;;;1.80;;
4577;SDS011;2301;47.354;8.528;2023-09-18T06:50:40;4.90;;;2.20;;
4577;SDS011;2301;47.354;8.528;2023-09-18T06:53:07;7.80;;;2.00;;
4577;SDS011;2301;47.354;8.528;2023-09-18T06:55:36;3.60;;;1.80;;
4577;SDS011;2301;47.354;8.528;2023-09-18T06:58:03;2.00;;;1.80;;
4577;SDS011;2301;47.354;8.528;2023-09-18T07:00:30;3.43;;;1.77;;
4577;SDS011;2301;47.354;8.528;2023-09-18T07:02:57;3.27;;;1.60;;
4577;SDS011;2301;47.354;8.528;2023-09-18T07:05:24;3.00;;;1.53;;
4577;SDS011;2301;47.354;8.528;2023-09-18T07:07:52;7.77;;;1.80;;
4577;SDS011;2301;47.354;8.528;2023-09-18T07:10:19;5.13;;;1.80;;
4577;SDS011;2301;47.354;8.528;2023-09-18T07:12:46;2.73;;;1.80;;
4577;SDS011;2301;47.354;8.528;2023-09-18T07:15:13;6.43;;;2.20;;
4577;SDS011;2301;47.354;8.528;2023-09-18T07:17:40;11.30;;;2.27;;
4577;SDS011;2301;47.354;8.528;2023-09-18T07:20:07;8.40;;;2.40;;
4577;SDS011;2301;47.354;8.528;2023-09-18T07:22:39;4.60;;;1.83;;
4577;SDS011;2301;47.354;8.528;2023-09-18T07:25:11;7.37;;;2.30;;
4577;SDS011;2301;47.354;8.528;2023-09-18T07:27:40;8.00;;;2.17;;
4577;SDS011;2301;47.354;8.528;2023-09-18T07:30:09;2.80;;;1.77;;
4577;SDS011;2301;47.354;8.528;2023-09-18T07:32:36;14.57;;;2.40;;
4577;SDS011;2301;47.354;8.528;2023-09-18T07:35:07;10.30;;;2.07;;
4577;SDS011;2301;47.354;8.528;2023-09-18T07:37:35;6.07;;;2.03;;
4577;SDS011;2301;47.354;8.528;2023-09-18T07:40:02;4.80;;;2.00;;
4577;SDS011;2301;47.354;8.528;2023-09-18T07:42:31;4.23;;;2.10;;
4577;SDS011;2301;47.354;8.528;2023-09-18T07:44:58;9.37;;;2.40;;
4577;SDS011;2301;47.354;8.528;2023-09-18T07:47:25;4.70;;;1.87;;
4577;SDS011;2301;47.354;8.528;2023-09-18T07:49:52;2.80;;;1.90;;
4577;SDS011;2301;47.354;8.528;2023-09-18T07:52:20;4.43;;;1.90;;
4577;SDS011;2301;47.354;8.528;2023-09-18T07:54:47;4.10;;;2.00;;
4577;SDS011;2301;47.354;8.528;2023-09-18T07:57:13;3.00;;;1.80;;
4577;SDS011;2301;47.354;8.528;2023-09-18T07:59:43;3.97;;;1.70;;
4577;SDS011;2301;47.354;8.528;2023-09-18T08:02:11;4.93;;;1.80;;
4577;SDS011;2301;47.354;8.528;2023-09-18T08:04:41;3.70;;;1.70;;
4577;SDS011;2301;47.354;8.528;2023-09-18T08:07:10;3.80;;;1.97;;
4577;SDS011;2301;47.354;8.528;2023-09-18T08:09:37;4.97;;;1.80;;
4577;SDS011;2301;47.354;8.528;2023-09-18T08:12:05;5.70;;;1.57;;
4577;SDS011;2301;47.354;8.528;2023-09-18T08:14:33;3.13;;;1.60;;
4577;SDS011;2301;47.354;8.528;2023-09-18T08:17:02;2.57;;;1.60;;
4577;SDS011;2301;47.354;8.528;2023-09-18T08:19:30;3.33;;;1.50;;
4577;SDS011;2301;47.354;8.528;2023-09-18T08:21:57;5.43;;;1.73;;
4577;SDS011;2301;47.354;8.528;2023-09-18T08:24:25;3.20;;;1.80;;
4577;SDS011;2301;47.354;8.528;2023-09-18T08:26:52;4.23;;;2.00;;
4577;SDS011;2301;47.354;8.528;2023-09-18T08:29:20;3.60;;;2.00;;
4577;SDS011;2301;47.354;8.528;2023-09-18T08:31:48;2.00;;;1.40;;
4577;SDS011;2301;47.354;8.528;2023-09-18T08:34:16;3.30;;;2.00;;
4577;SDS011;2301;47.354;8.528;2023-09-18T08:36:43;2.07;;;1.47;;
4577;SDS011;2301;47.354;8.528;2023-09-18T08:39:10;3.40;;;1.70;;
4577;SDS011;2301;47.354;8.528;2023-09-18T08:41:38;3.93;;;1.60;;
4577;SDS011;2301;47.354;8.528;2023-09-18T08:44:08;1.30;;;1.10;;
4577;SDS011;2301;47.354;8.528;2023-09-18T08:46:35;1.90;;;1.50;;
4577;SDS011;2301;47.354;8.528;2023-09-18T08:49:03;4.17;;;1.60;;
4577;SDS011;2301;47.354;8.528;2023-09-18T08:51:32;4.70;;;1.57;;
4577;SDS011;2301;47.354;8.528;2023-09-18T08:54:00;1.67;;;1.20;;
4577;SDS011;2301;47.354;8.528;2023-09-18T08:56:28;2.93;;;1.53;;
4577;SDS011;2301;47.354;8.528;2023-09-18T08:58:56;2.90;;;1.30;;
4577;SDS011;2301;47.354;8.528;2023-09-18T09:01:25;2.60;;;1.40;;
4577;SDS011;2301;47.354;8.528;2023-09-18T09:03:52;2.50;;;1.37;;
4577;SDS011;2301;47.354;8.528;2023-09-18T09:06:19;2.43;;;1.40;;
4577;SDS011;2301;47.354;8.528;2023-09-18T09:08:47;2.30;;;1.20;;
4577;SDS011;2301;47.354;8.528;2023-09-18T09:11:15;3.33;;;1.40;;
4577;SDS011;2301;47.354;8.528;2023-09-18T09:13:42;2.90;;;1.40;;
4577;SDS011;2301;47.354;8.528;2023-09-18T09:16:10;1.97;;;1.17;;
4577;SDS011;2301;47.354;8.528;2023-09-18T09:18:47;6.43;;;1.47;;
4577;SDS011;2301;47.354;8.528;2023-09-18T09:21:15;3.23;;;1.20;;
4577;SDS011;2301;47.354;8.528;2023-09-18T09:23:45;2.73;;;1.30;;
4577;SDS011;2301;47.354;8.528;2023-09-18T09:26:17;2.07;;;1.27;;
4577;SDS011;2301;47.354;8.528;2023-09-18T09:28:45;5.77;;;1.27;;
4577;SDS011;2301;47.354;8.528;2023-09-18T09:31:22;3.83;;;1.30;;
4577;SDS011;2301;47.354;8.528;2023-09-18T09:33:51;3.53;;;1.17;;
4577;SDS011;2301;47.354;8.528;2023-09-18T09:36:19;2.70;;;1.10;;
4577;SDS011;2301;47.354;8.528;2023-09-18T09:38:46;2.27;;;1.27;;
4577;SDS011;2301;47.354;8.528;2023-09-18T09:41:14;2.27;;;1.30;;
4577;SDS011;2301;47.354;8.528;2023-09-18T09:43:42;2.47;;;1.07;;
4577;SDS011;2301;47.354;8.528;2023-09-18T09:46:14;1.83;;;1.17;;
4577;SDS011;2301;47.354;8.528;2023-09-18T09:48:57;2.73;;;1.10;;
4577;SDS011;2301;47.354;8.528;2023-09-18T09:51:26;3.63;;;1.37;;
4577;SDS011;2301;47.354;8.528;2023-09-18T09:53:54;3.33;;;1.40;;
4577;SDS011;2301;47.354;8.528;2023-09-18T09:56:37;2.27;;;1.20;;
4577;SDS011;2301;47.354;8.528;2023-09-18T09:59:07;1.97;;;1.30;;
4577;SDS011;2301;47.354;8.528;2023-09-18T10:01:34;1.77;;;1.10;;
4577;SDS011;2301;47.354;8.528;2023-09-18T10:04:03;4.30;;;1.17;;
4577;SDS011;2301;47.354;8.528;2023-09-18T10:06:33;1.90;;;1.10;;
4577;SDS011;2301;47.354;8.528;2023-09-18T10:09:02;1.70;;;1.10;;
4577;SDS011;2301;47.354;8.528;2023-09-18T10:11:30;1.97;;;1.20;;
4577;SDS011;2301;47.354;8.528;2023-09-18T10:14:02;2.03;;;1.30;;
4577;SDS011;2301;47.354;8.528;2023-09-18T10:16:36;1.67;;;1.07;;
4577;SDS011;2301;47.354;8.528;2023-09-18T10:19:07;2.10;;;1.57;;
4577;SDS011;2301;47.354;8.528;2023-09-18T10:21:41;3.90;;;2.93;;
4577;SDS011;2301;47.354;8.528;2023-09-18T10:24:17;3.63;;;2.07;;
4577;SDS011;2301;47.354;8.528;2023-09-18T10:26:50;2.00;;;1.40;;
4577;SDS011;2301;47.354;8.528;2023-09-18T10:29:21;2.57;;;1.30;;
4577;SDS011;2301;47.354;8.528;2023-09-18T10:31:50;1.93;;;1.20;;
4577;SDS011;2301;47.354;8.528;2023-09-18T10:34:18;4.00;;;1.60;;
4577;SDS011;2301;47.354;8.528;2023-09-18T10:36:46;1.63;;;1.30;;
4577;SDS011;2301;47.354;8.528;2023-09-18T10:39:15;1.60;;;1.27;;
4577;SDS011;2301;47.354;8.528;2023-09-18T10:41:45;2.23;;;1.37;;
4577;SDS011;2301;47.354;8.528;2023-09-18T10:44:14;1.83;;;1.50;;
4577;SDS011;2301;47.354;8.528;2023-09-18T10:46:42;1.40;;;1.20;;
4577;SDS011;2301;47.354;8.528;2023-09-18T10:49:10;2.40;;;1.30;;
4577;SDS011;2301;47.354;8.528;2023-09-18T10:51:37;3.30;;;1.30;;
4577;SDS011;2301;47.354;8.528;2023-09-18T10:54:07;2.30;;;1.30;;
4577;SDS011;2301;47.354;8.528;2023-09-18T10:56:35;1.23;;;1.03;;
4577;SDS011;2301;47.354;8.528;2023-09-18T10:59:05;1.50;;;1.07;;
4577;SDS011;2301;47.354;8.528;2023-09-18T11:01:34;1.57;;;1.10;;
4577;SDS011;2301;47.354;8.528;2023-09-18T11:04:01;1.70;;;1.03;;
4577;SDS011;2301;47.354;8.528;2023-09-18T11:06:41;1.63;;;1.10;;
4577;SDS011;2301;47.354;8.528;2023-09-18T11:09:30;1.47;;;1.20;;
4577;SDS011;2301;47.354;8.528;2023-09-18T11:12:04;4.00;;;1.40;;
4577;SDS011;2301;47.354;8.528;2023-09-18T11:14:41;1.30;;;1.07;;
4577;SDS011;2301;47.354;8.528;2023-09-18T11:17:33;2.50;;;1.40;;
4577;SDS011;2301;47.354;8.528;2023-09-18T11:20:01;2.40;;;1.10;;
4577;SDS011;2301;47.354;8.528;2023-09-18T11:22:30;2.10;;;1.17;;
4577;SDS011;2301;47.354;8.528;2023-09-18T11:28:04;2.13;;;1.20;;
4577;SDS011;2301;47.354;8.528;2023-09-18T11:30:32;1.80;;;1.10;;
4577;SDS011;2301;47.354;8.528;2023-09-18T11:33:01;2.93;;;1.20;;
4577;SDS011;2301;47.354;8.528;2023-09-18T11:35:30;1.70;;;1.10;;
4577;SDS011;2301;47.354;8.528;2023-09-18T11:38:05;1.60;;;1.10;;
4577;SDS011;2301;47.354;8.528;2023-09-18T11:40:47;3.73;;;1.13;;
4577;SDS011;2301;47.354;8.528;2023-09-18T11:43:21;1.70;;;1.10;;
4577;SDS011;2301;47.354;8.528;2023-09-18T11:45:50;4.10;;;1.13;;
4577;SDS011;2301;47.354;8.528;2023-09-18T11:48:19;2.33;;;1.10;;
4577;SDS011;2301;47.354;8.528;2023-09-18T11:50:48;3.07;;;1.10;;
4577;SDS011;2301;47.354;8.528;2023-09-18T11:53:16;2.83;;;1.50;;
4577;SDS011;2301;47.354;8.528;2023-09-18T11:55:44;1.30;;;1.03;;
4577;SDS011;2301;47.354;8.528;2023-09-18T11:58:13;2.93;;;1.10;;
4577;SDS011;2301;47.354;8.528;2023-09-18T12:00:40;1.97;;;1.27;;
4577;SDS011;2301;47.354;8.528;2023-09-18T12:03:15;2.17;;;1.33;;
4577;SDS011;2301;47.354;8.528;2023-09-18T12:05:53;1.77;;;1.10;;
4577;SDS011;2301;47.354;8.528;2023-09-18T12:08:22;2.13;;;1.20;;
4577;SDS011;2301;47.354;8.528;2023-09-18T12:10:52;15.77;;;1.60;;
4577;SDS011;2301;47.354;8.528;2023-09-18T12:13:20;1.87;;;1.23;;
4577;SDS011;2301;47.354;8.528;2023-09-18T12:15:48;2.40;;;1.40;;
4577;SDS011;2301;47.354;8.528;2023-09-18T12:18:16;1.87;;;1.20;;
4577;SDS011;2301;47.354;8.528;2023-09-18T12:20:46;1.30;;;1.10;;
4577;SDS011;2301;47.354;8.528;2023-09-18T12:23:13;1.90;;;1.30;;
4577;SDS011;2301;47.354;8.528;2023-09-18T12:25:41;3.10;;;1.40;;
4577;SDS011;2301;47.354;8.528;2023-09-18T12:28:11;3.07;;;1.20;;
4577;SDS011;2301;47.354;8.528;2023-09-18T12:30:42;2.47;;;1.20;;
4577;SDS011;2301;47.354;8.528;2023-09-18T12:33:09;2.57;;;1.37;;
4577;SDS011;2301;47.354;8.528;2023-09-18T12:35:36;6.63;;;1.30;;
4577;SDS011;2301;47.354;8.528;2023-09-18T12:38:13;3.10;;;1.33;;
4577;SDS011;2301;47.354;8.528;2023-09-18T12:40:41;2.20;;;1.20;;
4577;SDS011;2301;47.354;8.528;2023-09-18T12:43:09;1.73;;;1.23;;
4577;SDS011;2301;47.354;8.528;2023-09-18T12:45:37;2.50;;;1.30;;
4577;SDS011;2301;47.354;8.528;2023-09-18T12:48:06;1.73;;;1.20;;
4577;SDS011;2301;47.354;8.528;2023-09-18T12:50:34;2.20;;;1.33;;
4577;SDS011;2301;47.354;8.528;2023-09-18T12:53:07;1.70;;;1.27;;
4577;SDS011;2301;47.354;8.528;2023-09-18T12:55:35;2.20;;;1.30;;
4577;SDS011;2301;47.354;8.528;2023-09-18T12:58:03;2.70;;;1.43;;
4577;SDS011;2301;47.354;8.528;2023-09-18T13:00:32;2.33;;;1.30;;
4577;SDS011;2301;47.354;8.528;2023-09-18T13:03:00;1.40;;;1.03;;
4577;SDS011;2301;47.354;8.528;2023-09-18T13:05:30;3.67;;;1.20;;
4577;SDS011;2301;47.354;8.528;2023-09-18T13:08:02;1.60;;;1.20;;
4577;SDS011;2301;47.354;8.528;2023-09-18T13:10:40;1.80;;;1.20;;
4577;SDS011;2301;47.354;8.528;2023-09-18T13:13:12;2.63;;;1.00;;
4577;SDS011;2301;47.354;8.528;2023-09-18T13:15:42;2.57;;;1.20;;
4577;SDS011;2301;47.354;8.528;2023-09-18T13:18:11;2.07;;;1.03;;
4577;SDS011;2301;47.354;8.528;2023-09-18T13:20:40;1.90;;;1.10;;
4577;SDS011;2301;47.354;8.528;2023-09-18T13:23:07;1.83;;;1.23;;
4577;SDS011;2301;47.354;8.528;2023-09-18T13:25:35;3.10;;;1.20;;
4577;SDS011;2301;47.354;8.528;2023-09-18T13:28:04;3.23;;;1.10;;
4577;SDS011;2301;47.354;8.528;2023-09-18T13:30:32;2.40;;;1.00;;
4577;SDS011;2301;47.354;8.528;2023-09-18T13:33:03;1.90;;;1.00;;
4577;SDS011;2301;47.354;8.528;2023-09-18T13:35:32;3.60;;;1.30;;
4577;SDS011;2301;47.354;8.528;2023-09-18T13:38:01;1.73;;;0.90;;
4577;SDS011;2301;47.354;8.528;2023-09-18T13:40:30;5.53;;;1.10;;
4577;SDS011;2301;47.354;8.528;2023-09-18T13:42:58;1.70;;;1.10;;
4577;SDS011;2301;47.354;8.528;2023-09-18T13:45:25;1.90;;;1.10;;
4577;SDS011;2301;47.354;8.528;2023-09-18T13:47:52;1.80;;;1.00;;
4577;SDS011;2301;47.354;8.528;2023-09-18T13:50:19;1.30;;;1.10;;
4577;SDS011;2301;47.354;8.528;2023-09-18T13:52:46;4.20;;;1.03;;
4577;SDS011;2301;47.354;8.528;2023-09-18T13:55:14;1.23;;;0.90;;
4577;SDS011;2301;47.354;8.528;2023-09-18T13:57:41;2.07;;;1.00;;
4577;SDS011;2301;47.354;8.528;2023-09-18T14:00:08;1.20;;;1.00;;
4577;SDS011;2301;47.354;8.528;2023-09-18T14:02:37;1.17;;;1.00;;
4577;SDS011;2301;47.354;8.528;2023-09-18T14:05:04;1.70;;;1.10;;
4577;SDS011;2301;47.354;8.528;2023-09-18T14:07:32;1.10;;;0.90;;
4577;SDS011;2301;47.354;8.528;2023-09-18T14:09:59;1.23;;;1.00;;
4577;SDS011;2301;47.354;8.528;2023-09-18T14:12:30;1.77;;;1.13;;
4577;SDS011;2301;47.354;8.528;2023-09-18T14:14:57;1.33;;;1.00;;
4577;SDS011;2301;47.354;8.528;2023-09-18T14:17:24;1.30;;;1.10;;
4577;SDS011;2301;47.354;8.528;2023-09-18T14:19:52;1.67;;;1.10;;
4577;SDS011;2301;47.354;8.528;2023-09-18T14:22:19;2.80;;;1.10;;
4577;SDS011;2301;47.354;8.528;2023-09-18T14:24:46;2.93;;;1.10;;
4577;SDS011;2301;47.354;8.528;2023-09-18T14:27:13;1.53;;;0.90;;
4577;SDS011;2301;47.354;8.528;2023-09-18T14:29:41;2.10;;;1.10;;
4577;SDS011;2301;47.354;8.528;2023-09-18T14:32:08;1.77;;;0.90;;
4577;SDS011;2301;47.354;8.528;2023-09-18T14:34:35;1.47;;;1.10;;
4577;SDS011;2301;47.354;8.528;2023-09-18T14:37:02;1.30;;;1.10;;
4577;SDS011;2301;47.354;8.528;2023-09-18T14:39:30;1.53;;;1.00;;
4577;SDS011;2301;47.354;8.528;2023-09-18T14:41:56;1.47;;;1.07;;
4577;SDS011;2301;47.354;8.528;2023-09-18T14:44:24;1.40;;;1.07;;
4577;SDS011;2301;47.354;8.528;2023-09-18T14:46:53;1.53;;;1.20;;
4577;SDS011;2301;47.354;8.528;2023-09-18T14:49:20;1.10;;;0.90;;
4577;SDS011;2301;47.354;8.528;2023-09-18T14:51:48;1.40;;;1.00;;
4577;SDS011;2301;47.354;8.528;2023-09-18T14:54:18;1.70;;;1.00;;
4577;SDS011;2301;47.354;8.528;2023-09-18T14:56:44;1.20;;;1.00;;
4577;SDS011;2301;47.354;8.528;2023-09-18T14:59:12;2.20;;;1.23;;
4577;SDS011;2301;47.354;8.528;2023-09-18T15:01:39;1.47;;;1.13;;
4577;SDS011;2301;47.354;8.528;2023-09-18T15:04:09;1.20;;;1.03;;
4577;SDS011;2301;47.354;8.528;2023-09-18T15:06:36;2.23;;;1.20;;
4577;SDS011;2301;47.354;8.528;2023-09-18T15:09:03;3.17;;;1.30;;
4577;SDS011;2301;47.354;8.528;2023-09-18T15:11:32;1.73;;;1.17;;
4577;SDS011;2301;47.354;8.528;2023-09-18T15:14:00;2.00;;;1.20;;
4577;SDS011;2301;47.354;8.528;2023-09-18T15:16:27;1.67;;;1.07;;
4577;SDS011;2301;47.354;8.528;2023-09-18T15:18:55;2.37;;;1.03;;
4577;SDS011;2301;47.354;8.528;2023-09-18T15:21:25;1.67;;;1.10;;
4577;SDS011;2301;47.354;8.528;2023-09-18T15:23:52;1.40;;;1.07;;
4577;SDS011;2301;47.354;8.528;2023-09-18T15:26:19;1.87;;;1.20;;